createdAt,value
2022-12-13T00:00:14.945Z,9.78
2022-12-13T00:03:28.634Z,9.30
2022-12-13T00:06:41.512Z,9.35
2022-12-13T00:09:53.261Z,8.90
2022-12-13T00:13:05.150Z,10.08
2022-12-13T00:16:22.691Z,9.58
2022-12-13T00:19:34.770Z,10.05
2022-12-13T00:22:46.846Z,9.10
2022-12-13T00:25:58.708Z,9.18
2022-12-13T00:29:13.258Z,9.10
2022-12-13T00:32:25.613Z,9.73
2022-12-13T00:35:37.921Z,9.15
2022-12-13T00:38:52.224Z,9.30
2022-12-13T00:42:04.361Z,8.95
2022-12-13T00:45:17.542Z,9.03
2022-12-13T00:48:39.401Z,8.73
2022-12-13T00:55:41.573Z,8.25
2022-12-13T00:59:05.793Z,8.00
2022-12-13T01:02:17.540Z,7.68
2022-12-13T01:06:12.538Z,8.35
2022-12-13T01:11:52.863Z,8.65
2022-12-13T01:15:04.788Z,7.93
2022-12-13T01:18:26.770Z,7.80
2022-12-13T01:21:38.716Z,8.05
2022-12-13T01:24:50.888Z,8.18
2022-12-13T01:28:02.706Z,7.58
2022-12-13T01:31:26.713Z,8.20
2022-12-13T01:34:38.490Z,8.48
2022-12-13T01:37:51.516Z,8.43
2022-12-13T01:41:08.995Z,9.98
2022-12-13T01:45:12.545Z,10.55
2022-12-13T01:48:29.239Z,10.58
2022-12-13T01:51:46.109Z,12.13
2022-12-13T01:55:29.388Z,12.13
2022-12-13T01:58:43.076Z,12.78
2022-12-13T02:02:00.996Z,13.38
2022-12-13T02:05:18.442Z,13.93
2022-12-13T02:08:35.970Z,13.00
2022-12-13T02:11:49.137Z,13.27
2022-12-13T02:15:02.552Z,12.50
2022-12-13T02:18:29.627Z,12.15
2022-12-13T02:21:47.834Z,11.20
2022-12-13T02:25:28.612Z,12.10
2022-12-13T02:28:53.354Z,11.60
2022-12-13T02:32:11.560Z,8.55
2022-12-13T02:35:36.184Z,11.58
2022-12-13T02:38:55.743Z,10.50
2022-12-13T02:42:21.410Z,11.10
2022-12-13T02:45:45.524Z,11.03
2022-12-13T02:49:00.929Z,10.83
2022-12-13T02:52:22.414Z,10.50
2022-12-13T02:55:32.549Z,10.73
2022-12-13T02:58:48.843Z,11.98
2022-12-13T03:02:10.939Z,11.73
2022-12-13T03:05:51.250Z,11.43
2022-12-13T03:09:24.000Z,11.88
2022-12-13T03:12:56.016Z,12.05
2022-12-13T03:16:15.439Z,12.35
2022-12-13T03:19:29.467Z,11.95
2022-12-13T03:22:42.708Z,11.43
2022-12-13T03:25:57.807Z,11.68
2022-12-13T03:29:09.895Z,12.40
2022-12-13T03:32:21.654Z,11.43
2022-12-13T03:35:44.383Z,11.65
2022-12-13T03:38:48.056Z,11.85
2022-12-13T03:42:01.023Z,11.48
2022-12-13T03:45:15.534Z,12.35
2022-12-13T03:48:28.696Z,12.13
2022-12-13T03:51:40.834Z,12.00
2022-12-13T03:54:52.677Z,12.45
2022-12-13T03:58:07.817Z,12.83
2022-12-13T04:01:22.273Z,13.33
2022-12-13T04:04:34.375Z,12.80
2022-12-13T04:07:47.903Z,14.70
2022-12-13T04:11:00.209Z,13.48
2022-12-13T04:14:22.627Z,13.85
2022-12-13T04:17:27.892Z,13.90
2022-12-13T04:20:39.690Z,14.18
2022-12-13T04:23:51.509Z,13.58
2022-12-13T04:27:03.387Z,14.13
2022-12-13T04:30:27.006Z,13.83
2022-12-13T04:33:41.164Z,13.53
2022-12-13T04:36:53.129Z,13.25
2022-12-13T04:40:21.558Z,13.03
2022-12-13T04:43:30.885Z,14.20
2022-12-13T04:46:44.072Z,12.50
2022-12-13T04:50:03.663Z,13.73
2022-12-13T04:53:45.965Z,13.63
2022-12-13T04:57:00.071Z,12.30
2022-12-13T05:00:21.287Z,13.03
2022-12-13T05:03:33.492Z,13.25
2022-12-13T05:06:46.425Z,12.65
2022-12-13T05:13:38.986Z,12.65
2022-12-13T05:16:51.033Z,11.93
2022-12-13T05:20:03.095Z,12.48
2022-12-13T05:26:55.875Z,11.85
2022-12-13T05:30:08.190Z,12.00
2022-12-13T05:33:20.234Z,11.68
2022-12-13T05:36:32.690Z,12.53
2022-12-13T05:39:44.756Z,13.38
2022-12-13T05:43:01.431Z,13.05
2022-12-13T05:46:11.364Z,11.53
2022-12-13T05:49:32.529Z,12.48
2022-12-13T05:52:44.894Z,11.90
2022-12-13T05:55:56.751Z,12.93
2022-12-13T05:59:08.696Z,11.55
2022-12-13T06:02:22.157Z,12.03
2022-12-13T06:05:35.066Z,12.20
2022-12-13T06:08:47.491Z,11.80
2022-12-13T06:12:01.147Z,10.28
2022-12-13T06:15:21.943Z,10.53
2022-12-13T06:18:30.600Z,9.78
2022-12-13T06:21:46.379Z,9.53
2022-12-13T06:24:57.370Z,9.40
2022-12-13T06:28:09.572Z,10.13
2022-12-13T06:31:21.454Z,9.68
2022-12-13T06:34:33.852Z,10.20
2022-12-13T06:37:46.520Z,10.93
2022-12-13T06:40:58.595Z,10.13
2022-12-13T06:44:12.854Z,10.18
2022-12-13T06:47:31.726Z,11.05
2022-12-13T06:50:39.237Z,9.88
2022-12-13T06:53:51.182Z,9.38
2022-12-13T06:57:03.035Z,10.53
2022-12-13T07:00:22.623Z,9.60
2022-12-13T07:03:37.584Z,10.35
2022-12-13T07:06:50.928Z,10.15
2022-12-13T07:10:03.445Z,10.25
2022-12-13T07:13:16.717Z,10.13
2022-12-13T07:16:30.080Z,9.80
2022-12-13T07:19:42.278Z,9.93
2022-12-13T07:22:58.908Z,10.33
2022-12-13T07:26:11.748Z,10.50
2022-12-13T07:29:23.838Z,10.28
2022-12-13T07:32:36.421Z,10.30
2022-12-13T07:35:48.900Z,10.60
2022-12-13T07:39:03.967Z,11.45
2022-12-13T07:42:15.817Z,10.75
2022-12-13T07:45:29.095Z,10.53
2022-12-13T07:48:41.353Z,10.83
2022-12-13T07:51:53.244Z,10.00
2022-12-13T07:55:05.854Z,11.65
2022-12-13T07:58:19.838Z,9.95
2022-12-13T08:01:32.222Z,10.93
2022-12-13T08:04:44.443Z,10.23
2022-12-13T08:07:57.184Z,9.95
2022-12-13T08:11:15.449Z,8.80
2022-12-13T08:14:27.344Z,9.83
2022-12-13T08:17:39.395Z,10.25
2022-12-13T08:20:52.728Z,8.90
2022-12-13T08:24:07.215Z,8.15
2022-12-13T08:27:19.955Z,7.95
2022-12-13T08:30:31.923Z,8.10
2022-12-13T08:33:46.503Z,9.03
2022-12-13T08:37:01.986Z,8.05
2022-12-13T08:40:15.809Z,7.53
2022-12-13T08:43:29.311Z,8.15
2022-12-13T08:46:41.346Z,8.08
2022-12-13T08:49:53.265Z,7.68
2022-12-13T08:53:05.401Z,7.85
2022-12-13T08:56:18.954Z,8.95
2022-12-13T08:59:32.236Z,8.05
2022-12-13T09:02:44.766Z,8.15
2022-12-13T09:05:57.099Z,8.50
2022-12-13T09:09:09.426Z,9.00
2022-12-13T09:12:30.707Z,8.18
2022-12-13T09:15:36.738Z,7.68
2022-12-13T09:18:55.404Z,8.48
2022-12-13T09:22:03.823Z,9.03
2022-12-13T09:25:24.004Z,8.88
2022-12-13T09:28:30.755Z,9.30
2022-12-13T09:31:42.641Z,9.43
2022-12-13T09:34:57.615Z,10.15
2022-12-13T09:38:09.935Z,9.70
2022-12-13T09:41:28.313Z,10.10
2022-12-13T09:44:51.548Z,9.95
2022-12-13T09:48:05.897Z,10.20
2022-12-13T09:51:28.603Z,10.23
2022-12-13T09:54:36.494Z,11.00
2022-12-13T09:57:52.808Z,12.25
2022-12-13T10:01:09.691Z,11.45
2022-12-13T10:04:26.045Z,10.90
2022-12-13T10:07:40.134Z,10.15
2022-12-13T10:10:53.064Z,10.90
2022-12-13T10:14:10.816Z,10.45
2022-12-13T10:17:26.281Z,10.35
2022-12-13T10:20:40.198Z,9.20
2022-12-13T10:24:23.650Z,8.38
2022-12-13T10:27:14.736Z,9.90
2022-12-13T10:30:29.435Z,8.10
2022-12-13T10:33:44.764Z,8.38
2022-12-13T10:36:59.515Z,8.63
2022-12-13T10:40:32.819Z,9.63
2022-12-13T10:43:39.814Z,9.18
2022-12-13T10:47:09.966Z,10.28
2022-12-13T10:50:33.462Z,10.73
2022-12-13T10:53:51.485Z,10.58
2022-12-13T10:57:04.875Z,11.58
2022-12-13T11:00:40.635Z,12.48
2022-12-13T11:04:04.664Z,12.75
2022-12-13T11:07:32.715Z,12.80
2022-12-13T11:10:45.986Z,15.35
2022-12-13T11:14:03.720Z,11.58
2022-12-13T11:17:23.255Z,11.15
2022-12-13T11:20:40.124Z,10.48
2022-12-13T11:23:52.973Z,10.43
2022-12-13T11:27:10.105Z,10.18
2022-12-13T11:30:28.915Z,10.70
2022-12-13T11:33:49.509Z,9.65
2022-12-13T11:37:08.635Z,9.80
2022-12-13T11:40:26.023Z,10.48
2022-12-13T11:43:43.827Z,8.83
2022-12-13T11:47:01.775Z,9.50
2022-12-13T11:50:32.999Z,10.10
2022-12-13T11:53:43.471Z,10.48
2022-12-13T11:57:00.803Z,11.43
2022-12-13T12:00:33.366Z,9.78
2022-12-13T12:03:46.114Z,9.83
2022-12-13T12:07:24.572Z,10.05
2022-12-13T12:10:29.524Z,10.28
2022-12-13T12:13:50.514Z,10.40
2022-12-13T12:17:03.906Z,10.68
2022-12-13T12:20:24.745Z,9.98
2022-12-13T12:23:52.661Z,9.63
2022-12-13T12:27:13.988Z,10.45
2022-12-13T12:30:32.962Z,10.23
2022-12-13T12:37:08.567Z,10.93
2022-12-13T12:41:14.691Z,10.53
2022-12-13T12:44:08.613Z,10.70
2022-12-13T12:47:57.562Z,10.80
2022-12-13T12:50:52.487Z,10.65
2022-12-13T12:54:12.704Z,9.75
2022-12-13T12:57:30.719Z,10.60
2022-12-13T13:00:50.582Z,9.15
2022-12-13T13:04:08.918Z,9.38
2022-12-13T13:07:25.683Z,9.18
2022-12-13T13:13:56.294Z,9.75
2022-12-13T13:17:56.940Z,8.93
2022-12-13T13:25:03.362Z,10.15
2022-12-13T13:28:22.246Z,10.15
2022-12-13T13:31:39.003Z,10.95
2022-12-13T13:34:53.612Z,9.88
2022-12-13T13:38:13.725Z,10.95
2022-12-13T13:42:07.862Z,11.43
2022-12-13T13:45:32.141Z,10.73
2022-12-13T13:49:02.977Z,11.15
2022-12-13T13:52:27.063Z,11.63
2022-12-13T13:56:02.995Z,12.13
2022-12-13T14:00:06.668Z,13.95
2022-12-13T14:04:15.673Z,15.03
2022-12-13T14:08:14.327Z,14.23
2022-12-13T14:12:20.301Z,15.00
2022-12-13T14:16:12.091Z,15.45
2022-12-13T14:20:06.231Z,16.38
2022-12-13T14:23:29.408Z,15.30
2022-12-13T14:26:58.379Z,16.20
2022-12-13T14:30:27.164Z,15.78
2022-12-13T14:33:34.700Z,16.28
2022-12-13T14:36:49.648Z,15.98
2022-12-13T14:40:01.538Z,16.75
2022-12-13T14:43:28.542Z,16.95
2022-12-13T14:46:41.270Z,16.75
2022-12-13T14:49:57.717Z,16.08
2022-12-13T14:53:10.425Z,16.48
2022-12-13T14:56:28.441Z,17.05
2022-12-13T14:59:37.726Z,15.70
2022-12-13T15:02:58.582Z,14.78
2022-12-13T15:06:11.780Z,16.68
2022-12-13T15:09:24.085Z,17.05
2022-12-13T15:12:39.133Z,17.33
2022-12-13T15:15:55.395Z,16.43
2022-12-13T15:19:30.062Z,17.00
2022-12-13T15:22:41.028Z,17.60
2022-12-13T15:26:03.445Z,16.45
2022-12-13T15:29:17.978Z,17.55
2022-12-13T15:32:30.603Z,16.50
2022-12-13T15:35:43.449Z,16.98
2022-12-13T15:39:07.151Z,16.70
2022-12-13T15:42:25.815Z,16.68
2022-12-13T15:45:38.176Z,17.70
2022-12-13T15:48:53.681Z,17.88
2022-12-13T15:52:08.877Z,19.13
2022-12-13T15:55:41.423Z,19.05
2022-12-13T15:58:58.541Z,20.38
2022-12-13T16:05:36.705Z,17.50
2022-12-13T16:08:50.131Z,19.78
2022-12-13T16:12:06.930Z,19.83
2022-12-13T16:15:29.603Z,21.15
2022-12-13T16:18:48.902Z,19.53
2022-12-13T16:22:01.111Z,18.48
2022-12-13T16:25:17.483Z,18.33
2022-12-13T16:28:29.717Z,18.08
2022-12-13T16:31:41.854Z,19.03
2022-12-13T16:34:53.925Z,16.65
2022-12-13T16:38:09.421Z,17.40
2022-12-13T16:41:22.233Z,16.13
2022-12-13T16:44:40.859Z,15.30
2022-12-13T16:47:54.263Z,16.15
2022-12-13T16:51:08.671Z,15.28
2022-12-13T16:54:20.786Z,14.55
2022-12-13T16:57:32.807Z,16.20
2022-12-13T17:00:45.572Z,14.33
2022-12-13T17:03:57.601Z,14.08
2022-12-13T17:07:09.581Z,13.08
2022-12-13T17:10:22.934Z,13.63
2022-12-13T17:13:35.645Z,14.65
2022-12-13T17:16:47.637Z,14.45
2022-12-13T17:20:00.408Z,14.25
2022-12-13T17:23:24.695Z,14.03
2022-12-13T17:26:26.967Z,14.38
2022-12-13T17:29:39.072Z,13.75
2022-12-13T17:32:51.554Z,14.28
2022-12-13T17:36:05.028Z,13.50
2022-12-13T17:39:19.107Z,14.65
2022-12-13T17:42:31.138Z,14.50
2022-12-13T17:45:44.059Z,14.98
2022-12-13T17:48:56.887Z,15.55
2022-12-13T17:52:11.581Z,15.93
2022-12-13T17:55:23.812Z,14.25
2022-12-13T17:58:36.576Z,12.53
2022-12-13T18:01:50.646Z,13.33
2022-12-13T18:05:02.885Z,13.30
2022-12-13T18:08:14.916Z,12.18
2022-12-13T18:11:35.092Z,12.75
2022-12-13T18:14:41.404Z,15.45
2022-12-13T18:21:13.241Z,15.88
2022-12-13T18:24:25.148Z,13.73
2022-12-13T18:27:39.639Z,12.43
2022-12-13T18:30:51.765Z,15.25
2022-12-13T18:34:05.795Z,19.10
2022-12-13T18:37:17.782Z,20.28
2022-12-13T18:40:29.966Z,20.93
2022-12-13T18:43:42.314Z,21.08
2022-12-13T18:46:54.425Z,21.48
2022-12-13T18:50:06.691Z,20.83
2022-12-13T18:53:20.595Z,19.83
2022-12-13T18:56:32.703Z,21.53
2022-12-13T18:59:54.326Z,20.73
2022-12-13T19:02:58.977Z,20.15
2022-12-13T19:06:14.630Z,21.58
2022-12-13T19:09:26.637Z,21.80
2022-12-13T19:12:38.638Z,24.68
2022-12-13T19:15:51.164Z,22.33
2022-12-13T19:19:03.536Z,23.08
2022-12-13T19:22:15.878Z,22.18
2022-12-13T19:25:27.923Z,21.23
2022-12-13T19:28:43.129Z,21.80
2022-12-13T19:31:55.423Z,21.55
2022-12-13T19:35:07.713Z,19.78
2022-12-13T19:38:21.926Z,17.98
2022-12-13T19:41:35.496Z,16.00
2022-12-13T19:44:47.680Z,13.98
2022-12-13T19:47:59.643Z,13.58
2022-12-13T19:51:14.230Z,11.98
2022-12-13T19:54:28.239Z,12.45
2022-12-13T19:57:41.347Z,12.25
2022-12-13T20:00:53.632Z,12.48
2022-12-13T20:04:05.922Z,12.03
2022-12-13T20:07:18.287Z,11.83
2022-12-13T20:10:30.885Z,12.35
2022-12-13T20:13:43.797Z,11.70
2022-12-13T20:16:55.773Z,12.33
2022-12-13T20:20:07.805Z,12.48
2022-12-13T20:23:20.557Z,19.18
2022-12-13T20:26:35.725Z,23.35
2022-12-13T20:29:48.332Z,23.65
2022-12-13T20:33:01.496Z,23.58
2022-12-13T20:36:25.905Z,28.10
2022-12-13T20:39:31.423Z,27.83
2022-12-13T20:42:44.401Z,27.08
2022-12-13T20:45:56.384Z,27.50
2022-12-13T20:49:10.937Z,29.25
2022-12-13T20:52:22.888Z,27.85
2022-12-13T20:55:34.962Z,29.33
2022-12-13T20:58:47.615Z,29.98
2022-12-13T21:01:59.583Z,30.95
2022-12-13T21:05:19.100Z,30.03
2022-12-13T21:08:42.036Z,31.63
2022-12-13T21:11:55.228Z,32.50
2022-12-13T21:15:07.416Z,33.53
2022-12-13T21:18:19.387Z,35.10
2022-12-13T21:21:32.880Z,35.95
2022-12-13T21:24:44.775Z,34.90
2022-12-13T21:27:56.713Z,35.48
2022-12-13T21:31:10.931Z,36.80
2022-12-13T21:34:23.229Z,38.10
2022-12-13T21:37:35.067Z,43.43
2022-12-13T21:40:52.145Z,43.80
2022-12-13T21:44:05.274Z,43.75
2022-12-13T21:47:17.164Z,48.18
2022-12-13T21:50:28.972Z,40.68
2022-12-13T21:53:41.289Z,44.30
2022-12-13T21:57:07.726Z,45.08
2022-12-13T22:00:22.095Z,45.00
2022-12-13T22:03:33.964Z,46.13
2022-12-13T22:06:45.840Z,45.55
2022-12-13T22:09:59.524Z,45.30
2022-12-13T22:13:11.427Z,45.43
2022-12-13T22:16:23.243Z,43.48
2022-12-13T22:19:35.082Z,42.08
2022-12-13T22:22:48.617Z,43.70
2022-12-13T22:26:00.481Z,41.15
2022-12-13T22:29:14.050Z,41.35
2022-12-13T22:32:27.201Z,38.40
2022-12-13T22:35:39.480Z,37.78
2022-12-13T22:38:54.546Z,38.13
2022-12-13T22:42:06.566Z,37.63
2022-12-13T22:45:18.947Z,39.43
2022-12-13T22:48:30.920Z,39.73
2022-12-13T22:51:44.342Z,41.48
2022-12-13T22:54:56.215Z,41.78
2022-12-13T22:58:08.124Z,38.63
2022-12-13T23:01:22.780Z,37.10
2022-12-13T23:04:34.868Z,37.43
2022-12-13T23:07:48.516Z,36.03
2022-12-13T23:11:19.066Z,34.63
2022-12-13T23:14:37.016Z,38.15
2022-12-13T23:17:48.937Z,35.40
2022-12-13T23:21:00.837Z,35.58
2022-12-13T23:24:14.656Z,34.80
2022-12-13T23:27:28.533Z,34.80
2022-12-13T23:30:41.701Z,35.80
2022-12-13T23:33:53.924Z,36.43
2022-12-13T23:37:05.801Z,37.10
2022-12-13T23:40:19.629Z,36.93
2022-12-13T23:43:34.388Z,37.93
2022-12-13T23:46:48.342Z,37.70
2022-12-13T23:50:00.908Z,38.03
2022-12-13T23:53:12.850Z,37.05
2022-12-13T23:56:25.505Z,38.60
2022-12-13T23:59:37.448Z,39.15
